sensor_id;sensor_type;location;lat;lon;timestamp;temperature;humidity
21261;DHT22;10788;47.930;9.766;2022-11-20T00:00:47;3.20;99.90
21261;DHT22;10788;47.930;9.766;2022-11-20T00:03:13;3.20;99.90
21261;DHT22;10788;47.930;9.766;2022-11-20T00:05:39;3.20;99.90
21261;DHT22;10788;47.930;9.766;2022-11-20T00:08:04;3.10;99.90
21261;DHT22;10788;47.930;9.766;2022-11-20T00:10:32;3.20;99.90
21261;DHT22;10788;47.930;9.766;2022-11-20T00:13:01;3.20;99.90
21261;DHT22;10788;47.930;9.766;2022-11-20T00:15:26;3.20;99.90
21261;DHT22;10788;47.930;9.766;2022-11-20T00:17:52;3.20;99.90
21261;DHT22;10788;47.930;9.766;2022-11-20T00:20:20;3.20;99.90
21261;DHT22;10788;47.930;9.766;2022-11-20T00:22:45;3.10;99.90
21261;DHT22;10788;47.930;9.766;2022-11-20T00:25:11;3.20;99.90
21261;DHT22;10788;47.930;9.766;2022-11-20T00:27:37;3.20;99.90
21261;DHT22;10788;47.930;9.766;2022-11-20T00:30:05;3.20;99.90
21261;DHT22;10788;47.930;9.766;2022-11-20T00:32:31;3.20;99.90
21261;DHT22;10788;47.930;9.766;2022-11-20T00:34:57;3.30;99.90
21261;DHT22;10788;47.930;9.766;2022-11-20T00:37:22;3.30;99.90
21261;DHT22;10788;47.930;9.766;2022-11-20T00:39:48;3.30;99.90
21261;DHT22;10788;47.930;9.766;2022-11-20T00:42:14;3.30;99.90
21261;DHT22;10788;47.930;9.766;2022-11-20T00:44:39;3.40;99.90
21261;DHT22;10788;47.930;9.766;2022-11-20T00:47:05;3.30;99.90
21261;DHT22;10788;47.930;9.766;2022-11-20T00:49:30;3.40;99.90
21261;DHT22;10788;47.930;9.766;2022-11-20T00:51:56;3.50;99.90
21261;DHT22;10788;47.930;9.766;2022-11-20T00:54:22;3.50;99.90
21261;DHT22;10788;47.930;9.766;2022-11-20T00:56:47;3.60;99.90
21261;DHT22;10788;47.930;9.766;2022-11-20T00:59:13;3.60;99.90
21261;DHT22;10788;47.930;9.766;2022-11-20T01:01:38;3.60;99.90
21261;DHT22;10788;47.930;9.766;2022-11-20T01:04:04;3.60;99.90
21261;DHT22;10788;47.930;9.766;2022-11-20T01:06:33;3.70;99.90
21261;DHT22;10788;47.930;9.766;2022-11-20T01:09:03;3.70;99.90
21261;DHT22;10788;47.930;9.766;2022-11-20T01:11:34;3.60;99.90
21261;DHT22;10788;47.930;9.766;2022-11-20T01:14:01;3.60;99.90
21261;DHT22;10788;47.930;9.766;2022-11-20T01:16:33;3.70;99.90
21261;DHT22;10788;47.930;9.766;2022-11-20T01:19:02;3.70;99.90
21261;DHT22;10788;47.930;9.766;2022-11-20T01:21:34;3.70;99.90
21261;DHT22;10788;47.930;9.766;2022-11-20T01:24:00;3.70;99.90
21261;DHT22;10788;47.930;9.766;2022-11-20T01:26:29;3.80;99.90
21261;DHT22;10788;47.930;9.766;2022-11-20T01:28:56;3.80;99.90
21261;DHT22;10788;47.930;9.766;2022-11-20T01:31:23;3.80;99.90
21261;DHT22;10788;47.930;9.766;2022-11-20T01:33:53;3.80;99.90
21261;DHT22;10788;47.930;9.766;2022-11-20T01:36:21;3.80;99.90
21261;DHT22;10788;47.930;9.766;2022-11-20T01:38:47;3.80;99.90
21261;DHT22;10788;47.930;9.766;2022-11-20T01:41:14;3.70;99.90
21261;DHT22;10788;47.930;9.766;2022-11-20T01:44:00;3.80;99.90
21261;DHT22;10788;47.930;9.766;2022-11-20T01:46:26;3.80;99.90
21261;DHT22;10788;47.930;9.766;2022-11-20T01:51:32;3.80;99.90
21261;DHT22;10788;47.930;9.766;2022-11-20T01:54:01;3.80;99.90
21261;DHT22;10788;47.930;9.766;2022-11-20T01:56:28;3.80;99.90
21261;DHT22;10788;47.930;9.766;2022-11-20T01:58:58;3.80;99.90
21261;DHT22;10788;47.930;9.766;2022-11-20T02:01:26;3.80;99.90
21261;DHT22;10788;47.930;9.766;2022-11-20T02:03:52;3.80;99.90
21261;DHT22;10788;47.930;9.766;2022-11-20T02:06:27;3.80;99.90
21261;DHT22;10788;47.930;9.766;2022-11-20T02:08:54;3.80;99.90
21261;DHT22;10788;47.930;9.766;2022-11-20T02:11:20;3.80;99.90
21261;DHT22;10788;47.930;9.766;2022-11-20T02:13:47;3.80;99.90
21261;DHT22;10788;47.930;9.766;2022-11-20T02:16:26;3.80;99.90
21261;DHT22;10788;47.930;9.766;2022-11-20T02:18:54;3.80;99.90
21261;DHT22;10788;47.930;9.766;2022-11-20T02:24:13;3.90;99.90
21261;DHT22;10788;47.930;9.766;2022-11-20T02:27:01;3.80;99.90
21261;DHT22;10788;47.930;9.766;2022-11-20T02:29:46;3.80;99.90
21261;DHT22;10788;47.930;9.766;2022-11-20T02:32:26;3.80;99.90
21261;DHT22;10788;47.930;9.766;2022-11-20T02:34:53;3.80;99.90
21261;DHT22;10788;47.930;9.766;2022-11-20T02:37:19;3.80;99.90
21261;DHT22;10788;47.930;9.766;2022-11-20T02:39:47;3.80;99.90
21261;DHT22;10788;47.930;9.766;2022-11-20T02:42:13;3.80;99.90
21261;DHT22;10788;47.930;9.766;2022-11-20T02:44:39;3.80;99.90
21261;DHT22;10788;47.930;9.766;2022-11-20T02:47:04;3.80;99.90
21261;DHT22;10788;47.930;9.766;2022-11-20T02:49:30;3.80;99.90
21261;DHT22;10788;47.930;9.766;2022-11-20T02:51:56;3.80;99.90
21261;DHT22;10788;47.930;9.766;2022-11-20T02:54:22;3.80;99.90
21261;DHT22;10788;47.930;9.766;2022-11-20T02:56:47;3.80;99.90
21261;DHT22;10788;47.930;9.766;2022-11-20T02:59:13;3.90;99.90
21261;DHT22;10788;47.930;9.766;2022-11-20T03:01:38;3.90;99.90
21261;DHT22;10788;47.930;9.766;2022-11-20T03:04:04;3.90;99.90
21261;DHT22;10788;47.930;9.766;2022-11-20T03:06:30;3.90;99.90
21261;DHT22;10788;47.930;9.766;2022-11-20T03:08:55;3.90;99.90
21261;DHT22;10788;47.930;9.766;2022-11-20T03:11:21;3.80;99.90
21261;DHT22;10788;47.930;9.766;2022-11-20T03:13:47;3.80;99.90
21261;DHT22;10788;47.930;9.766;2022-11-20T03:16:17;3.90;99.90
21261;DHT22;10788;47.930;9.766;2022-11-20T03:18:44;3.90;99.90
21261;DHT22;10788;47.930;9.766;2022-11-20T03:21:11;3.90;99.90
21261;DHT22;10788;47.930;9.766;2022-11-20T03:23:38;3.90;99.90
21261;DHT22;10788;47.930;9.766;2022-11-20T03:26:21;3.90;99.90
21261;DHT22;10788;47.930;9.766;2022-11-20T03:28:50;3.90;99.90
21261;DHT22;10788;47.930;9.766;2022-11-20T03:31:17;3.90;99.90
21261;DHT22;10788;47.930;9.766;2022-11-20T03:33:43;3.90;99.90
21261;DHT22;10788;47.930;9.766;2022-11-20T03:36:11;3.90;99.90
21261;DHT22;10788;47.930;9.766;2022-11-20T03:38:37;3.90;99.90
21261;DHT22;10788;47.930;9.766;2022-11-20T03:41:14;3.90;99.90
21261;DHT22;10788;47.930;9.766;2022-11-20T03:43:40;3.90;99.90
21261;DHT22;10788;47.930;9.766;2022-11-20T03:46:06;3.90;99.90
21261;DHT22;10788;47.930;9.766;2022-11-20T03:48:32;3.90;99.90
21261;DHT22;10788;47.930;9.766;2022-11-20T03:51:13;3.80;99.90
21261;DHT22;10788;47.930;9.766;2022-11-20T03:53:43;3.80;99.90
21261;DHT22;10788;47.930;9.766;2022-11-20T03:56:11;3.80;99.90
21261;DHT22;10788;47.930;9.766;2022-11-20T03:58:37;3.80;99.90
21261;DHT22;10788;47.930;9.766;2022-11-20T04:01:18;3.80;99.90
21261;DHT22;10788;47.930;9.766;2022-11-20T04:03:44;3.80;99.90
21261;DHT22;10788;47.930;9.766;2022-11-20T04:06:22;3.70;99.90
21261;DHT22;10788;47.930;9.766;2022-11-20T04:08:48;3.70;99.90
21261;DHT22;10788;47.930;9.766;2022-11-20T04:11:16;3.70;99.90
21261;DHT22;10788;47.930;9.766;2022-11-20T04:13:45;3.90;99.90
21261;DHT22;10788;47.930;9.766;2022-11-20T04:16:11;3.70;99.90
21261;DHT22;10788;47.930;9.766;2022-11-20T04:18:37;3.70;99.90
21261;DHT22;10788;47.930;9.766;2022-11-20T04:21:03;3.70;99.90
21261;DHT22;10788;47.930;9.766;2022-11-20T04:23:29;3.70;99.90
21261;DHT22;10788;47.930;9.766;2022-11-20T04:26:00;3.70;99.90
21261;DHT22;10788;47.930;9.766;2022-11-20T04:28:26;3.70;99.90
21261;DHT22;10788;47.930;9.766;2022-11-20T04:30:51;3.70;99.90
21261;DHT22;10788;47.930;9.766;2022-11-20T04:33:17;3.70;99.90
21261;DHT22;10788;47.930;9.766;2022-11-20T04:35:44;3.70;99.90
21261;DHT22;10788;47.930;9.766;2022-11-20T04:38:12;3.70;99.90
21261;DHT22;10788;47.930;9.766;2022-11-20T04:40:38;3.80;99.90
21261;DHT22;10788;47.930;9.766;2022-11-20T04:43:03;3.70;99.90
21261;DHT22;10788;47.930;9.766;2022-11-20T04:45:29;3.80;99.90
21261;DHT22;10788;47.930;9.766;2022-11-20T04:47:54;3.80;99.90
21261;DHT22;10788;47.930;9.766;2022-11-20T04:50:20;3.80;99.90
21261;DHT22;10788;47.930;9.766;2022-11-20T04:52:45;3.80;99.90
21261;DHT22;10788;47.930;9.766;2022-11-20T04:55:11;3.80;99.90
21261;DHT22;10788;47.930;9.766;2022-11-20T04:57:37;3.80;99.90
21261;DHT22;10788;47.930;9.766;2022-11-20T05:00:03;3.70;99.90
21261;DHT22;10788;47.930;9.766;2022-11-20T05:02:30;3.70;99.90
21261;DHT22;10788;47.930;9.766;2022-11-20T05:04:56;3.70;99.90
21261;DHT22;10788;47.930;9.766;2022-11-20T05:07:22;3.70;99.90
21261;DHT22;10788;47.930;9.766;2022-11-20T05:09:47;3.60;99.90
21261;DHT22;10788;47.930;9.766;2022-11-20T05:12:13;3.60;99.90
21261;DHT22;10788;47.930;9.766;2022-11-20T05:14:38;3.60;99.90
21261;DHT22;10788;47.930;9.766;2022-11-20T05:17:04;3.60;99.90
21261;DHT22;10788;47.930;9.766;2022-11-20T05:19:30;3.60;99.90
21261;DHT22;10788;47.930;9.766;2022-11-20T05:21:55;3.70;99.90
21261;DHT22;10788;47.930;9.766;2022-11-20T05:24:21;3.70;99.90
21261;DHT22;10788;47.930;9.766;2022-11-20T05:26:47;3.60;99.90
21261;DHT22;10788;47.930;9.766;2022-11-20T05:29:15;3.70;99.90
21261;DHT22;10788;47.930;9.766;2022-11-20T05:31:41;3.60;99.90
21261;DHT22;10788;47.930;9.766;2022-11-20T05:34:06;3.70;99.90
21261;DHT22;10788;47.930;9.766;2022-11-20T05:36:33;3.70;99.90
21261;DHT22;10788;47.930;9.766;2022-11-20T05:38:58;3.70;99.90
21261;DHT22;10788;47.930;9.766;2022-11-20T05:41:24;3.70;99.90
21261;DHT22;10788;47.930;9.766;2022-11-20T05:43:51;3.70;99.90
21261;DHT22;10788;47.930;9.766;2022-11-20T05:46:18;3.70;99.90
21261;DHT22;10788;47.930;9.766;2022-11-20T05:48:45;3.70;99.90
21261;DHT22;10788;47.930;9.766;2022-11-20T05:51:14;3.80;99.90
21261;DHT22;10788;47.930;9.766;2022-11-20T05:53:40;3.80;99.90
21261;DHT22;10788;47.930;9.766;2022-11-20T05:56:08;3.80;99.90
21261;DHT22;10788;47.930;9.766;2022-11-20T05:58:35;3.70;99.90
21261;DHT22;10788;47.930;9.766;2022-11-20T06:01:25;3.70;99.90
21261;DHT22;10788;47.930;9.766;2022-11-20T06:03:51;3.70;99.90
21261;DHT22;10788;47.930;9.766;2022-11-20T06:06:18;3.70;99.90
21261;DHT22;10788;47.930;9.766;2022-11-20T06:08:44;3.70;99.90
21261;DHT22;10788;47.930;9.766;2022-11-20T06:11:11;3.70;99.90
21261;DHT22;10788;47.930;9.766;2022-11-20T06:13:38;3.70;99.90
21261;DHT22;10788;47.930;9.766;2022-11-20T06:16:04;3.70;99.90
21261;DHT22;10788;47.930;9.766;2022-11-20T06:18:30;3.80;99.90
21261;DHT22;10788;47.930;9.766;2022-11-20T06:21:06;3.70;99.90
21261;DHT22;10788;47.930;9.766;2022-11-20T06:23:33;3.70;99.90
21261;DHT22;10788;47.930;9.766;2022-11-20T06:26:20;3.70;99.90
21261;DHT22;10788;47.930;9.766;2022-11-20T06:28:46;3.80;99.90
21261;DHT22;10788;47.930;9.766;2022-11-20T06:31:14;3.90;99.90
21261;DHT22;10788;47.930;9.766;2022-11-20T06:33:41;3.90;99.90
21261;DHT22;10788;47.930;9.766;2022-11-20T06:36:07;3.90;99.90
21261;DHT22;10788;47.930;9.766;2022-11-20T06:38:32;4.00;99.90
21261;DHT22;10788;47.930;9.766;2022-11-20T06:40:58;3.90;99.90
21261;DHT22;10788;47.930;9.766;2022-11-20T06:43:24;3.80;99.90
21261;DHT22;10788;47.930;9.766;2022-11-20T06:45:53;3.90;99.90
21261;DHT22;10788;47.930;9.766;2022-11-20T06:48:19;3.80;99.90
21261;DHT22;10788;47.930;9.766;2022-11-20T06:50:45;3.80;99.90
21261;DHT22;10788;47.930;9.766;2022-11-20T06:53:11;3.80;99.90
21261;DHT22;10788;47.930;9.766;2022-11-20T06:55:37;3.80;99.90
21261;DHT22;10788;47.930;9.766;2022-11-20T06:58:07;3.90;99.90
21261;DHT22;10788;47.930;9.766;2022-11-20T07:00:32;3.80;99.90
21261;DHT22;10788;47.930;9.766;2022-11-20T07:02:58;3.90;99.90
21261;DHT22;10788;47.930;9.766;2022-11-20T07:05:23;3.90;99.90
21261;DHT22;10788;47.930;9.766;2022-11-20T07:07:49;3.90;99.90
21261;DHT22;10788;47.930;9.766;2022-11-20T07:10:16;3.90;99.90
21261;DHT22;10788;47.930;9.766;2022-11-20T07:12:41;4.00;99.90
21261;DHT22;10788;47.930;9.766;2022-11-20T07:15:07;4.00;99.90
21261;DHT22;10788;47.930;9.766;2022-11-20T07:17:33;4.00;99.90
21261;DHT22;10788;47.930;9.766;2022-11-20T07:19:58;4.10;99.90
21261;DHT22;10788;47.930;9.766;2022-11-20T07:22:24;4.10;99.90
21261;DHT22;10788;47.930;9.766;2022-11-20T07:24:49;4.10;99.90
21261;DHT22;10788;47.930;9.766;2022-11-20T07:27:15;4.10;99.90
21261;DHT22;10788;47.930;9.766;2022-11-20T07:29:41;4.10;99.90
21261;DHT22;10788;47.930;9.766;2022-11-20T07:32:06;4.10;99.90
21261;DHT22;10788;47.930;9.766;2022-11-20T07:34:32;4.00;99.90
21261;DHT22;10788;47.930;9.766;2022-11-20T07:36:58;4.10;99.90
21261;DHT22;10788;47.930;9.766;2022-11-20T07:39:23;4.10;99.90
21261;DHT22;10788;47.930;9.766;2022-11-20T07:41:49;4.20;99.90
21261;DHT22;10788;47.930;9.766;2022-11-20T07:44:14;4.30;99.90
21261;DHT22;10788;47.930;9.766;2022-11-20T07:46:40;4.30;99.90
21261;DHT22;10788;47.930;9.766;2022-11-20T07:49:08;4.30;99.90
21261;DHT22;10788;47.930;9.766;2022-11-20T07:51:34;4.30;99.90
21261;DHT22;10788;47.930;9.766;2022-11-20T07:54:00;4.30;99.90
21261;DHT22;10788;47.930;9.766;2022-11-20T07:56:28;4.30;99.90
21261;DHT22;10788;47.930;9.766;2022-11-20T07:58:54;4.30;99.90
21261;DHT22;10788;47.930;9.766;2022-11-20T08:01:19;4.40;99.90
21261;DHT22;10788;47.930;9.766;2022-11-20T08:03:45;4.50;99.90
21261;DHT22;10788;47.930;9.766;2022-11-20T08:06:11;4.50;99.90
21261;DHT22;10788;47.930;9.766;2022-11-20T08:08:36;4.50;99.90
21261;DHT22;10788;47.930;9.766;2022-11-20T08:11:03;4.50;99.90
21261;DHT22;10788;47.930;9.766;2022-11-20T08:13:47;4.50;99.90
21261;DHT22;10788;47.930;9.766;2022-11-20T08:16:32;4.60;99.90
21261;DHT22;10788;47.930;9.766;2022-11-20T08:18:57;4.60;99.90
21261;DHT22;10788;47.930;9.766;2022-11-20T08:21:23;4.70;99.90
21261;DHT22;10788;47.930;9.766;2022-11-20T08:23:49;4.70;99.90
21261;DHT22;10788;47.930;9.766;2022-11-20T08:26:14;4.70;99.90
21261;DHT22;10788;47.930;9.766;2022-11-20T08:28:40;4.70;99.90
21261;DHT22;10788;47.930;9.766;2022-11-20T08:31:06;4.70;99.90
21261;DHT22;10788;47.930;9.766;2022-11-20T08:33:31;4.60;99.90
21261;DHT22;10788;47.930;9.766;2022-11-20T08:36:04;4.60;99.90
21261;DHT22;10788;47.930;9.766;2022-11-20T08:38:31;4.60;99.90
21261;DHT22;10788;47.930;9.766;2022-11-20T08:41:01;4.70;99.90
21261;DHT22;10788;47.930;9.766;2022-11-20T08:43:45;4.70;99.90
21261;DHT22;10788;47.930;9.766;2022-11-20T08:46:11;4.60;99.90
21261;DHT22;10788;47.930;9.766;2022-11-20T08:48:37;4.60;99.90
21261;DHT22;10788;47.930;9.766;2022-11-20T08:51:02;4.60;99.90
21261;DHT22;10788;47.930;9.766;2022-11-20T08:53:28;4.70;99.90
21261;DHT22;10788;47.930;9.766;2022-11-20T08:55:54;4.70;99.90
21261;DHT22;10788;47.930;9.766;2022-11-20T08:58:19;4.70;99.90
21261;DHT22;10788;47.930;9.766;2022-11-20T09:00:45;4.70;99.90
21261;DHT22;10788;47.930;9.766;2022-11-20T09:03:11;4.70;99.90
21261;DHT22;10788;47.930;9.766;2022-11-20T09:05:38;4.80;99.90
21261;DHT22;10788;47.930;9.766;2022-11-20T09:08:06;4.80;99.90
21261;DHT22;10788;47.930;9.766;2022-11-20T09:10:32;4.80;99.90
21261;DHT22;10788;47.930;9.766;2022-11-20T09:12:57;4.90;99.90
21261;DHT22;10788;47.930;9.766;2022-11-20T09:15:24;4.90;99.90
21261;DHT22;10788;47.930;9.766;2022-11-20T09:17:54;4.90;99.90
21261;DHT22;10788;47.930;9.766;2022-11-20T09:20:20;4.90;99.90
21261;DHT22;10788;47.930;9.766;2022-11-20T09:22:45;5.00;99.90
21261;DHT22;10788;47.930;9.766;2022-11-20T09:25:11;5.00;99.90
21261;DHT22;10788;47.930;9.766;2022-11-20T09:27:37;5.00;99.90
21261;DHT22;10788;47.930;9.766;2022-11-20T09:30:03;5.10;99.90
21261;DHT22;10788;47.930;9.766;2022-11-20T09:32:29;5.10;99.90
21261;DHT22;10788;47.930;9.766;2022-11-20T09:34:54;5.10;99.90
21261;DHT22;10788;47.930;9.766;2022-11-20T09:37:20;5.30;99.90
21261;DHT22;10788;47.930;9.766;2022-11-20T09:39:46;5.20;99.90
21261;DHT22;10788;47.930;9.766;2022-11-20T09:50:33;5.30;99.90
21261;DHT22;10788;47.930;9.766;2022-11-20T09:53:16;5.30;99.90
21261;DHT22;10788;47.930;9.766;2022-11-20T09:55:45;5.50;99.90
21261;DHT22;10788;47.930;9.766;2022-11-20T09:58:35;5.50;99.90
21261;DHT22;10788;47.930;9.766;2022-11-20T10:04:12;5.30;99.90
21261;DHT22;10788;47.930;9.766;2022-11-20T10:09:32;5.40;99.90
21261;DHT22;10788;47.930;9.766;2022-11-20T10:28:43;6.00;99.90
21261;DHT22;10788;47.930;9.766;2022-11-20T10:31:36;5.90;99.90
21261;DHT22;10788;47.930;9.766;2022-11-20T10:34:07;5.80;99.90
21261;DHT22;10788;47.930;9.766;2022-11-20T10:36:54;5.80;99.90
21261;DHT22;10788;47.930;9.766;2022-11-20T10:40:05;5.80;99.90
21261;DHT22;10788;47.930;9.766;2022-11-20T10:42:44;5.70;99.90
21261;DHT22;10788;47.930;9.766;2022-11-20T10:50:36;5.70;99.90
21261;DHT22;10788;47.930;9.766;2022-11-20T10:56:00;5.70;99.90
21261;DHT22;10788;47.930;9.766;2022-11-20T10:58:43;5.70;99.90
21261;DHT22;10788;47.930;9.766;2022-11-20T11:01:15;5.70;99.90
21261;DHT22;10788;47.930;9.766;2022-11-20T11:03:42;5.60;99.90
21261;DHT22;10788;47.930;9.766;2022-11-20T11:08:59;5.80;99.90
21261;DHT22;10788;47.930;9.766;2022-11-20T11:11:30;5.70;99.90
21261;DHT22;10788;47.930;9.766;2022-11-20T11:14:15;5.70;99.90
21261;DHT22;10788;47.930;9.766;2022-11-20T11:17:01;5.70;99.90
21261;DHT22;10788;47.930;9.766;2022-11-20T11:19:26;5.60;99.90
21261;DHT22;10788;47.930;9.766;2022-11-20T11:21:54;5.60;99.90
21261;DHT22;10788;47.930;9.766;2022-11-20T11:24:25;5.70;99.90
21261;DHT22;10788;47.930;9.766;2022-11-20T11:27:04;5.70;99.90
21261;DHT22;10788;47.930;9.766;2022-11-20T11:29:35;5.70;99.90
21261;DHT22;10788;47.930;9.766;2022-11-20T11:32:13;5.70;99.90
21261;DHT22;10788;47.930;9.766;2022-11-20T11:34:39;5.70;99.90
21261;DHT22;10788;47.930;9.766;2022-11-20T11:37:10;5.70;99.90
21261;DHT22;10788;47.930;9.766;2022-11-20T11:39:45;5.80;99.90
21261;DHT22;10788;47.930;9.766;2022-11-20T11:42:17;5.80;99.90
21261;DHT22;10788;47.930;9.766;2022-11-20T11:44:45;5.70;99.90
21261;DHT22;10788;47.930;9.766;2022-11-20T11:47:44;5.70;99.90
21261;DHT22;10788;47.930;9.766;2022-11-20T11:50:30;5.70;99.90
21261;DHT22;10788;47.930;9.766;2022-11-20T11:58:50;5.70;99.90
21261;DHT22;10788;47.930;9.766;2022-11-20T12:01:33;5.80;99.90
21261;DHT22;10788;47.930;9.766;2022-11-20T12:06:53;5.70;99.90
21261;DHT22;10788;47.930;9.766;2022-11-20T12:09:34;5.70;99.90
21261;DHT22;10788;47.930;9.766;2022-11-20T12:12:11;5.80;99.90
21261;DHT22;10788;47.930;9.766;2022-11-20T12:14:46;5.70;99.90
21261;DHT22;10788;47.930;9.766;2022-11-20T12:17:13;5.70;99.90
21261;DHT22;10788;47.930;9.766;2022-11-20T12:19:42;5.80;99.90
21261;DHT22;10788;47.930;9.766;2022-11-20T12:22:24;5.60;99.90
21261;DHT22;10788;47.930;9.766;2022-11-20T12:28:11;5.70;99.90
21261;DHT22;10788;47.930;9.766;2022-11-20T12:31:09;5.70;99.90
21261;DHT22;10788;47.930;9.766;2022-11-20T12:34:03;5.70;99.90
21261;DHT22;10788;47.930;9.766;2022-11-20T12:39:07;5.70;99.90
21261;DHT22;10788;47.930;9.766;2022-11-20T12:41:55;5.70;99.90
21261;DHT22;10788;47.930;9.766;2022-11-20T12:59:43;5.80;99.90
21261;DHT22;10788;47.930;9.766;2022-11-20T13:05:48;5.90;99.90
21261;DHT22;10788;47.930;9.766;2022-11-20T13:08:11;5.80;99.90
21261;DHT22;10788;47.930;9.766;2022-11-20T13:19:04;5.90;99.90
21261;DHT22;10788;47.930;9.766;2022-11-20T13:24:24;5.90;99.90
21261;DHT22;10788;47.930;9.766;2022-11-20T13:29:44;6.00;99.90
21261;DHT22;10788;47.930;9.766;2022-11-20T13:34:39;6.10;99.90
21261;DHT22;10788;47.930;9.766;2022-11-20T13:37:05;6.10;99.90
21261;DHT22;10788;47.930;9.766;2022-11-20T13:39:35;6.00;99.90
21261;DHT22;10788;47.930;9.766;2022-11-20T13:42:25;6.10;99.90
21261;DHT22;10788;47.930;9.766;2022-11-20T13:45:01;6.10;99.90
21261;DHT22;10788;47.930;9.766;2022-11-20T13:47:30;6.10;99.90
21261;DHT22;10788;47.930;9.766;2022-11-20T13:49:57;6.00;99.90
21261;DHT22;10788;47.930;9.766;2022-11-20T14:02:44;6.20;99.90
21261;DHT22;10788;47.930;9.766;2022-11-20T14:05:22;6.10;99.90
21261;DHT22;10788;47.930;9.766;2022-11-20T14:07:51;6.20;99.90
21261;DHT22;10788;47.930;9.766;2022-11-20T14:10:22;6.20;99.90
21261;DHT22;10788;47.930;9.766;2022-11-20T14:12:48;6.20;99.90
21261;DHT22;10788;47.930;9.766;2022-11-20T14:15:33;6.20;99.90
21261;DHT22;10788;47.930;9.766;2022-11-20T14:18:30;6.20;99.90
21261;DHT22;10788;47.930;9.766;2022-11-20T14:20:55;6.20;99.90
21261;DHT22;10788;47.930;9.766;2022-11-20T14:23:31;6.10;99.90
21261;DHT22;10788;47.930;9.766;2022-11-20T14:25:57;6.20;99.90
21261;DHT22;10788;47.930;9.766;2022-11-20T14:28:30;6.20;99.90
21261;DHT22;10788;47.930;9.766;2022-11-20T14:30:57;6.30;99.90
21261;DHT22;10788;47.930;9.766;2022-11-20T14:33:23;6.20;99.90
21261;DHT22;10788;47.930;9.766;2022-11-20T14:36:16;6.20;99.90
21261;DHT22;10788;47.930;9.766;2022-11-20T14:38:45;6.20;99.90
21261;DHT22;10788;47.930;9.766;2022-11-20T14:41:22;6.20;99.90
21261;DHT22;10788;47.930;9.766;2022-11-20T14:43:56;6.20;99.90
21261;DHT22;10788;47.930;9.766;2022-11-20T14:46:32;6.20;99.90
21261;DHT22;10788;47.930;9.766;2022-11-20T14:49:01;6.20;99.90
21261;DHT22;10788;47.930;9.766;2022-11-20T14:51:38;6.30;99.90
21261;DHT22;10788;47.930;9.766;2022-11-20T14:54:11;6.40;99.90
21261;DHT22;10788;47.930;9.766;2022-11-20T14:56:43;6.30;99.90
21261;DHT22;10788;47.930;9.766;2022-11-20T14:59:32;6.30;99.90
21261;DHT22;10788;47.930;9.766;2022-11-20T15:02:13;6.40;99.90
21261;DHT22;10788;47.930;9.766;2022-11-20T15:05:03;6.30;99.90
21261;DHT22;10788;47.930;9.766;2022-11-20T15:07:41;6.30;99.90
21261;DHT22;10788;47.930;9.766;2022-11-20T15:10:22;6.20;99.90
21261;DHT22;10788;47.930;9.766;2022-11-20T15:15:23;6.10;99.90
21261;DHT22;10788;47.930;9.766;2022-11-20T15:17:51;6.00;99.90
21261;DHT22;10788;47.930;9.766;2022-11-20T15:20:17;6.00;99.90
21261;DHT22;10788;47.930;9.766;2022-11-20T15:22:42;6.00;99.90
21261;DHT22;10788;47.930;9.766;2022-11-20T15:25:18;6.10;99.90
21261;DHT22;10788;47.930;9.766;2022-11-20T15:27:44;6.10;99.90
21261;DHT22;10788;47.930;9.766;2022-11-20T15:30:19;6.00;99.90
21261;DHT22;10788;47.930;9.766;2022-11-20T15:32:46;5.90;99.90
21261;DHT22;10788;47.930;9.766;2022-11-20T15:35:12;5.80;99.90
21261;DHT22;10788;47.930;9.766;2022-11-20T15:37:40;5.80;99.90
21261;DHT22;10788;47.930;9.766;2022-11-20T15:40:07;5.80;99.90
21261;DHT22;10788;47.930;9.766;2022-11-20T15:42:33;5.70;99.90
21261;DHT22;10788;47.930;9.766;2022-11-20T15:44:59;5.60;99.90
21261;DHT22;10788;47.930;9.766;2022-11-20T15:47:28;5.60;99.90
21261;DHT22;10788;47.930;9.766;2022-11-20T15:49:54;5.60;99.90
21261;DHT22;10788;47.930;9.766;2022-11-20T15:52:20;5.60;99.90
21261;DHT22;10788;47.930;9.766;2022-11-20T15:54:45;5.50;99.90
21261;DHT22;10788;47.930;9.766;2022-11-20T15:57:11;5.50;99.90
21261;DHT22;10788;47.930;9.766;2022-11-20T15:59:38;5.50;99.90
21261;DHT22;10788;47.930;9.766;2022-11-20T16:02:11;5.40;99.90
21261;DHT22;10788;47.930;9.766;2022-11-20T16:04:37;5.40;99.90
21261;DHT22;10788;47.930;9.766;2022-11-20T16:07:03;5.40;99.90
21261;DHT22;10788;47.930;9.766;2022-11-20T16:09:29;5.30;99.90
21261;DHT22;10788;47.930;9.766;2022-11-20T16:11:54;5.30;99.90
21261;DHT22;10788;47.930;9.766;2022-11-20T16:14:20;5.30;99.90
21261;DHT22;10788;47.930;9.766;2022-11-20T16:17:04;5.30;99.90
21261;DHT22;10788;47.930;9.766;2022-11-20T16:19:30;5.30;99.90
21261;DHT22;10788;47.930;9.766;2022-11-20T16:21:57;5.30;99.90
21261;DHT22;10788;47.930;9.766;2022-11-20T16:24:23;5.40;99.90
21261;DHT22;10788;47.930;9.766;2022-11-20T16:26:48;5.30;99.90
21261;DHT22;10788;47.930;9.766;2022-11-20T16:29:17;5.20;99.90
21261;DHT22;10788;47.930;9.766;2022-11-20T16:31:52;5.20;99.90
21261;DHT22;10788;47.930;9.766;2022-11-20T16:34:28;5.20;99.90
21261;DHT22;10788;47.930;9.766;2022-11-20T16:36:59;5.20;99.90
21261;DHT22;10788;47.930;9.766;2022-11-20T16:39:25;5.20;99.90
21261;DHT22;10788;47.930;9.766;2022-11-20T16:41:53;5.10;99.90
21261;DHT22;10788;47.930;9.766;2022-11-20T16:44:19;5.10;99.90
21261;DHT22;10788;47.930;9.766;2022-11-20T16:46:45;5.20;99.90
21261;DHT22;10788;47.930;9.766;2022-11-20T16:49:12;5.20;99.90
21261;DHT22;10788;47.930;9.766;2022-11-20T16:51:38;5.20;99.90
21261;DHT22;10788;47.930;9.766;2022-11-20T16:54:06;5.20;99.90
21261;DHT22;10788;47.930;9.766;2022-11-20T16:56:35;5.10;99.90
21261;DHT22;10788;47.930;9.766;2022-11-20T16:59:02;5.10;99.90
21261;DHT22;10788;47.930;9.766;2022-11-20T17:01:29;5.10;99.90
21261;DHT22;10788;47.930;9.766;2022-11-20T17:03:59;5.10;99.90
21261;DHT22;10788;47.930;9.766;2022-11-20T17:06:30;5.00;99.90
21261;DHT22;10788;47.930;9.766;2022-11-20T17:08:56;5.00;99.90
21261;DHT22;10788;47.930;9.766;2022-11-20T17:11:22;5.00;99.90
21261;DHT22;10788;47.930;9.766;2022-11-20T17:13:48;4.90;99.90
21261;DHT22;10788;47.930;9.766;2022-11-20T17:16:20;5.00;99.90
21261;DHT22;10788;47.930;9.766;2022-11-20T17:18:46;4.90;99.90
21261;DHT22;10788;47.930;9.766;2022-11-20T17:21:15;4.90;99.90
21261;DHT22;10788;47.930;9.766;2022-11-20T17:23:42;4.80;99.90
21261;DHT22;10788;47.930;9.766;2022-11-20T17:26:16;4.80;99.90
21261;DHT22;10788;47.930;9.766;2022-11-20T17:28:46;4.80;99.90
21261;DHT22;10788;47.930;9.766;2022-11-20T17:31:14;4.80;99.90
21261;DHT22;10788;47.930;9.766;2022-11-20T17:33:44;4.80;99.90
21261;DHT22;10788;47.930;9.766;2022-11-20T17:36:12;4.90;99.90
21261;DHT22;10788;47.930;9.766;2022-11-20T17:38:38;4.90;99.90
21261;DHT22;10788;47.930;9.766;2022-11-20T17:41:09;5.00;99.90
21261;DHT22;10788;47.930;9.766;2022-11-20T17:43:35;5.00;99.90
21261;DHT22;10788;47.930;9.766;2022-11-20T17:46:26;5.10;99.90
21261;DHT22;10788;47.930;9.766;2022-11-20T17:48:50;5.10;99.90